sensor_id;sensor_type;location;lat;lon;timestamp;noise_LAeq;noise_LA_min;noise_LA_max;noise_LA01;noise_LA95
18377;Laerm;9315;52.624;13.544;2023-06-26T00:01:41;56.81;36.88;75.20;;
18377;Laerm;9315;52.624;13.544;2023-06-26T00:04:10;54.65;35.04;72.63;;
18377;Laerm;9315;52.624;13.544;2023-06-26T00:06:41;41.98;32.41;52.51;;
18377;Laerm;9315;52.624;13.544;2023-06-26T00:09:09;43.17;36.79;50.89;;
18377;Laerm;9315;52.624;13.544;2023-06-26T00:11:36;43.00;36.18;53.51;;
18377;Laerm;9315;52.624;13.544;2023-06-26T00:14:03;57.86;39.38;74.16;;
18377;Laerm;9315;52.624;13.544;2023-06-26T00:16:30;46.71;41.74;52.15;;
18377;Laerm;9315;52.624;13.544;2023-06-26T00:18:58;61.67;37.09;80.46;;
18377;Laerm;9315;52.624;13.544;2023-06-26T00:21:28;46.61;36.16;64.23;;
18377;Laerm;9315;52.624;13.544;2023-06-26T00:23:55;52.60;37.98;70.53;;
18377;Laerm;9315;52.624;13.544;2023-06-26T00:26:22;42.54;35.47;52.10;;
18377;Laerm;9315;52.624;13.544;2023-06-26T00:28:51;59.05;38.97;80.01;;
18377;Laerm;9315;52.624;13.544;2023-06-26T00:31:18;53.62;41.11;71.36;;
18377;Laerm;9315;52.624;13.544;2023-06-26T00:33:45;54.70;39.59;72.22;;
18377;Laerm;9315;52.624;13.544;2023-06-26T00:36:12;51.96;39.54;66.85;;
18377;Laerm;9315;52.624;13.544;2023-06-26T00:38:40;53.73;40.31;72.52;;
18377;Laerm;9315;52.624;13.544;2023-06-26T00:41:07;60.29;37.15;77.80;;
18377;Laerm;9315;52.624;13.544;2023-06-26T00:43:40;43.20;32.88;57.48;;
18377;Laerm;9315;52.624;13.544;2023-06-26T00:46:12;55.49;37.70;75.61;;
18377;Laerm;9315;52.624;13.544;2023-06-26T00:48:44;60.81;39.25;79.18;;
18377;Laerm;9315;52.624;13.544;2023-06-26T00:51:13;48.92;41.91;62.79;;
18377;Laerm;9315;52.624;13.544;2023-06-26T00:53:40;56.12;38.42;73.99;;
18377;Laerm;9315;52.624;13.544;2023-06-26T00:56:08;56.59;40.45;72.86;;
18377;Laerm;9315;52.624;13.544;2023-06-26T00:58:36;48.76;42.57;59.86;;
18377;Laerm;9315;52.624;13.544;2023-06-26T01:01:03;60.05;40.37;77.05;;
18377;Laerm;9315;52.624;13.544;2023-06-26T01:03:32;55.70;40.85;70.96;;
18377;Laerm;9315;52.624;13.544;2023-06-26T01:06:00;59.48;43.06;73.98;;
18377;Laerm;9315;52.624;13.544;2023-06-26T01:08:29;49.75;42.90;60.35;;
18377;Laerm;9315;52.624;13.544;2023-06-26T01:10:59;54.82;40.55;70.91;;
18377;Laerm;9315;52.624;13.544;2023-06-26T01:13:29;55.53;39.87;74.87;;
18377;Laerm;9315;52.624;13.544;2023-06-26T01:15:58;43.51;39.16;48.57;;
18377;Laerm;9315;52.624;13.544;2023-06-26T01:18:26;60.36;41.35;74.11;;
18377;Laerm;9315;52.624;13.544;2023-06-26T01:20:54;56.06;40.00;73.11;;
18377;Laerm;9315;52.624;13.544;2023-06-26T01:26:37;47.96;41.53;61.57;;
18377;Laerm;9315;52.624;13.544;2023-06-26T01:29:08;55.02;37.99;71.03;;
18377;Laerm;9315;52.624;13.544;2023-06-26T01:31:37;61.69;40.60;78.93;;
18377;Laerm;9315;52.624;13.544;2023-06-26T01:34:05;59.77;43.68;78.11;;
18377;Laerm;9315;52.624;13.544;2023-06-26T01:36:32;57.31;40.15;72.18;;
18377;Laerm;9315;52.624;13.544;2023-06-26T01:39:00;57.66;39.98;74.35;;
18377;Laerm;9315;52.624;13.544;2023-06-26T01:41:27;59.16;39.74;76.75;;
18377;Laerm;9315;52.624;13.544;2023-06-26T01:50:00;50.93;42.03;59.75;;
18377;Laerm;9315;52.624;13.544;2023-06-26T01:52:43;57.94;42.57;72.51;;
18377;Laerm;9315;52.624;13.544;2023-06-26T01:55:40;57.21;43.32;73.80;;
18377;Laerm;9315;52.624;13.544;2023-06-26T01:58:14;56.13;42.80;73.51;;
18377;Laerm;9315;52.624;13.544;2023-06-26T02:00:44;55.25;43.40;72.60;;
18377;Laerm;9315;52.624;13.544;2023-06-26T02:03:12;57.17;42.22;71.87;;
18377;Laerm;9315;52.624;13.544;2023-06-26T02:05:40;58.76;40.88;76.21;;
18377;Laerm;9315;52.624;13.544;2023-06-26T02:08:10;62.49;44.07;78.10;;
18377;Laerm;9315;52.624;13.544;2023-06-26T02:10:37;55.87;43.90;74.75;;
18377;Laerm;9315;52.624;13.544;2023-06-26T02:13:05;60.90;44.08;75.65;;
18377;Laerm;9315;52.624;13.544;2023-06-26T02:15:32;56.56;44.11;73.64;;
18377;Laerm;9315;52.624;13.544;2023-06-26T02:17:59;60.11;45.17;76.65;;
18377;Laerm;9315;52.624;13.544;2023-06-26T02:20:29;63.82;44.49;77.99;;
18377;Laerm;9315;52.624;13.544;2023-06-26T02:22:59;64.47;44.80;78.61;;
18377;Laerm;9315;52.624;13.544;2023-06-26T02:25:26;59.16;42.13;75.80;;
18377;Laerm;9315;52.624;13.544;2023-06-26T02:27:53;61.13;44.84;77.29;;
18377;Laerm;9315;52.624;13.544;2023-06-26T02:30:20;63.63;46.39;75.15;;
18377;Laerm;9315;52.624;13.544;2023-06-26T02:32:47;59.39;43.60;75.46;;
18377;Laerm;9315;52.624;13.544;2023-06-26T02:35:14;59.54;44.11;69.79;;
18377;Laerm;9315;52.624;13.544;2023-06-26T02:37:42;62.65;44.34;76.33;;
18377;Laerm;9315;52.624;13.544;2023-06-26T02:40:10;64.55;43.58;80.75;;
18377;Laerm;9315;52.624;13.544;2023-06-26T02:42:37;58.62;41.97;72.02;;
18377;Laerm;9315;52.624;13.544;2023-06-26T02:45:05;65.93;43.10;81.38;;
18377;Laerm;9315;52.624;13.544;2023-06-26T02:47:33;60.33;43.93;73.31;;
18377;Laerm;9315;52.624;13.544;2023-06-26T02:50:00;63.64;43.56;75.08;;
18377;Laerm;9315;52.624;13.544;2023-06-26T02:52:27;60.79;43.70;72.01;;
18377;Laerm;9315;52.624;13.544;2023-06-26T02:54:56;63.29;45.02;77.23;;
18377;Laerm;9315;52.624;13.544;2023-06-26T02:57:23;62.39;43.86;74.92;;
18377;Laerm;9315;52.624;13.544;2023-06-26T02:59:50;63.86;45.00;75.21;;
18377;Laerm;9315;52.624;13.544;2023-06-26T03:02:17;66.49;47.06;81.39;;
18377;Laerm;9315;52.624;13.544;2023-06-26T03:04:45;65.56;46.56;74.65;;
18377;Laerm;9315;52.624;13.544;2023-06-26T03:07:12;63.87;47.03;76.68;;
18377;Laerm;9315;52.624;13.544;2023-06-26T03:09:39;67.57;48.41;82.44;;
18377;Laerm;9315;52.624;13.544;2023-06-26T03:12:07;64.77;45.74;76.16;;
18377;Laerm;9315;52.624;13.544;2023-06-26T03:14:34;67.74;45.77;86.22;;
18377;Laerm;9315;52.624;13.544;2023-06-26T03:17:02;65.50;47.33;76.53;;
18377;Laerm;9315;52.624;13.544;2023-06-26T03:19:30;65.85;49.02;75.07;;
18377;Laerm;9315;52.624;13.544;2023-06-26T03:21:58;66.53;48.79;77.16;;
18377;Laerm;9315;52.624;13.544;2023-06-26T03:24:25;64.32;48.30;76.07;;
18377;Laerm;9315;52.624;13.544;2023-06-26T03:26:52;66.02;49.06;75.32;;
18377;Laerm;9315;52.624;13.544;2023-06-26T03:29:19;66.57;48.42;82.89;;
18377;Laerm;9315;52.624;13.544;2023-06-26T03:31:46;66.72;49.44;77.09;;
18377;Laerm;9315;52.624;13.544;2023-06-26T03:34:14;64.55;49.26;76.71;;
18377;Laerm;9315;52.624;13.544;2023-06-26T03:36:41;66.84;52.19;77.36;;
18377;Laerm;9315;52.624;13.544;2023-06-26T03:39:08;66.71;50.27;78.28;;
18377;Laerm;9315;52.624;13.544;2023-06-26T03:41:35;68.09;52.29;77.83;;
18377;Laerm;9315;52.624;13.544;2023-06-26T03:44:03;67.31;49.84;77.57;;
18377;Laerm;9315;52.624;13.544;2023-06-26T03:46:30;67.29;50.91;76.94;;
18377;Laerm;9315;52.624;13.544;2023-06-26T03:48:58;66.66;51.62;75.79;;
18377;Laerm;9315;52.624;13.544;2023-06-26T03:51:25;67.46;50.91;75.62;;
18377;Laerm;9315;52.624;13.544;2023-06-26T03:53:52;66.50;49.39;77.67;;
18377;Laerm;9315;52.624;13.544;2023-06-26T03:56:19;67.09;51.40;79.23;;
18377;Laerm;9315;52.624;13.544;2023-06-26T03:58:46;68.11;50.34;83.24;;
18377;Laerm;9315;52.624;13.544;2023-06-26T04:01:13;67.72;49.84;76.03;;
18377;Laerm;9315;52.624;13.544;2023-06-26T04:03:41;68.90;49.45;77.49;;
18377;Laerm;9315;52.624;13.544;2023-06-26T04:06:08;69.04;49.52;79.39;;
18377;Laerm;9315;52.624;13.544;2023-06-26T04:08:36;68.03;50.12;78.69;;
18377;Laerm;9315;52.624;13.544;2023-06-26T04:11:03;67.76;49.28;79.88;;
18377;Laerm;9315;52.624;13.544;2023-06-26T04:13:36;70.65;49.99;82.59;;
18377;Laerm;9315;52.624;13.544;2023-06-26T04:16:03;67.30;50.34;78.43;;
18377;Laerm;9315;52.624;13.544;2023-06-26T04:18:31;68.76;49.67;81.12;;
18377;Laerm;9315;52.624;13.544;2023-06-26T04:21:10;68.38;49.48;80.04;;
18377;Laerm;9315;52.624;13.544;2023-06-26T04:23:40;70.47;51.26;80.46;;
18377;Laerm;9315;52.624;13.544;2023-06-26T04:26:08;68.80;49.40;82.52;;
18377;Laerm;9315;52.624;13.544;2023-06-26T04:28:36;67.29;50.81;82.32;;
18377;Laerm;9315;52.624;13.544;2023-06-26T04:31:03;66.66;50.63;78.72;;
18377;Laerm;9315;52.624;13.544;2023-06-26T04:33:31;68.36;49.04;76.46;;
18377;Laerm;9315;52.624;13.544;2023-06-26T04:35:58;69.08;50.10;77.14;;
18377;Laerm;9315;52.624;13.544;2023-06-26T04:38:26;68.38;50.17;79.17;;
18377;Laerm;9315;52.624;13.544;2023-06-26T04:40:53;68.57;49.62;78.28;;
18377;Laerm;9315;52.624;13.544;2023-06-26T04:43:22;67.06;49.10;77.18;;
18377;Laerm;9315;52.624;13.544;2023-06-26T04:45:51;72.54;56.40;88.47;;
18377;Laerm;9315;52.624;13.544;2023-06-26T04:48:19;67.79;56.84;75.80;;
18377;Laerm;9315;52.624;13.544;2023-06-26T04:50:46;69.50;54.44;79.63;;
18377;Laerm;9315;52.624;13.544;2023-06-26T04:53:24;68.94;50.19;85.38;;
18377;Laerm;9315;52.624;13.544;2023-06-26T04:55:52;68.22;52.02;77.25;;
18377;Laerm;9315;52.624;13.544;2023-06-26T04:58:20;71.73;48.17;85.58;;
18377;Laerm;9315;52.624;13.544;2023-06-26T05:00:47;68.90;47.67;78.81;;
18377;Laerm;9315;52.624;13.544;2023-06-26T05:03:17;67.15;50.03;77.25;;
18377;Laerm;9315;52.624;13.544;2023-06-26T05:05:48;69.26;51.46;79.32;;
18377;Laerm;9315;52.624;13.544;2023-06-26T05:08:22;68.95;50.66;82.87;;
18377;Laerm;9315;52.624;13.544;2023-06-26T05:10:49;68.80;47.00;82.20;;
18377;Laerm;9315;52.624;13.544;2023-06-26T05:13:17;69.55;46.34;80.49;;
18377;Laerm;9315;52.624;13.544;2023-06-26T05:15:49;69.33;45.89;84.39;;
18377;Laerm;9315;52.624;13.544;2023-06-26T05:18:16;69.35;47.79;76.29;;
18377;Laerm;9315;52.624;13.544;2023-06-26T05:20:44;68.73;49.20;77.78;;
18377;Laerm;9315;52.624;13.544;2023-06-26T05:23:13;69.77;47.58;82.89;;
18377;Laerm;9315;52.624;13.544;2023-06-26T05:25:42;69.16;48.88;79.32;;
18377;Laerm;9315;52.624;13.544;2023-06-26T05:28:11;69.31;49.75;79.32;;
18377;Laerm;9315;52.624;13.544;2023-06-26T05:30:39;69.20;46.40;85.26;;
18377;Laerm;9315;52.624;13.544;2023-06-26T05:33:12;68.78;46.80;79.62;;
18377;Laerm;9315;52.624;13.544;2023-06-26T05:35:41;69.14;44.88;76.66;;
18377;Laerm;9315;52.624;13.544;2023-06-26T05:38:10;69.54;48.26;80.97;;
18377;Laerm;9315;52.624;13.544;2023-06-26T05:40:37;68.11;49.03;77.24;;
18377;Laerm;9315;52.624;13.544;2023-06-26T05:43:08;68.35;45.62;81.56;;
18377;Laerm;9315;52.624;13.544;2023-06-26T05:45:35;69.15;46.26;76.65;;
18377;Laerm;9315;52.624;13.544;2023-06-26T05:48:03;69.45;52.05;86.37;;
18377;Laerm;9315;52.624;13.544;2023-06-26T05:50:31;67.50;46.21;76.57;;
18377;Laerm;9315;52.624;13.544;2023-06-26T05:52:59;67.87;43.97;77.99;;
18377;Laerm;9315;52.624;13.544;2023-06-26T05:55:26;68.81;45.51;82.18;;
18377;Laerm;9315;52.624;13.544;2023-06-26T05:57:54;68.08;43.68;79.05;;
18377;Laerm;9315;52.624;13.544;2023-06-26T06:00:24;68.24;42.05;80.17;;
18377;Laerm;9315;52.624;13.544;2023-06-26T06:02:53;66.59;42.58;75.10;;
18377;Laerm;9315;52.624;13.544;2023-06-26T06:05:22;72.06;45.08;93.37;;
18377;Laerm;9315;52.624;13.544;2023-06-26T06:07:50;68.48;46.77;75.95;;
18377;Laerm;9315;52.624;13.544;2023-06-26T06:10:17;67.60;45.94;80.39;;
18377;Laerm;9315;52.624;13.544;2023-06-26T06:12:45;67.78;43.93;79.47;;
18377;Laerm;9315;52.624;13.544;2023-06-26T06:15:12;66.92;45.79;76.27;;
18377;Laerm;9315;52.624;13.544;2023-06-26T06:17:41;76.55;49.79;103.74;;
18377;Laerm;9315;52.624;13.544;2023-06-26T06:20:10;68.50;49.49;79.75;;
18377;Laerm;9315;52.624;13.544;2023-06-26T06:22:37;68.82;49.03;78.58;;
18377;Laerm;9315;52.624;13.544;2023-06-26T06:25:05;69.44;45.72;82.85;;
18377;Laerm;9315;52.624;13.544;2023-06-26T06:27:33;66.13;43.48;76.72;;
18377;Laerm;9315;52.624;13.544;2023-06-26T06:30:00;69.28;50.37;86.52;;
18377;Laerm;9315;52.624;13.544;2023-06-26T06:32:27;68.23;46.18;78.55;;
18377;Laerm;9315;52.624;13.544;2023-06-26T06:34:54;66.12;45.59;76.53;;
18377;Laerm;9315;52.624;13.544;2023-06-26T06:37:21;67.22;45.72;79.56;;
18377;Laerm;9315;52.624;13.544;2023-06-26T06:39:49;69.84;45.10;80.93;;
18377;Laerm;9315;52.624;13.544;2023-06-26T06:42:16;66.29;42.97;75.95;;
18377;Laerm;9315;52.624;13.544;2023-06-26T06:44:43;68.60;46.91;80.19;;
18377;Laerm;9315;52.624;13.544;2023-06-26T06:47:10;68.46;49.28;77.37;;
18377;Laerm;9315;52.624;13.544;2023-06-26T06:49:38;72.04;46.28;94.47;;
18377;Laerm;9315;52.624;13.544;2023-06-26T06:52:05;68.89;44.40;83.99;;
18377;Laerm;9315;52.624;13.544;2023-06-26T06:54:56;68.75;48.23;79.60;;
18377;Laerm;9315;52.624;13.544;2023-06-26T06:57:26;67.41;43.21;77.85;;
18377;Laerm;9315;52.624;13.544;2023-06-26T06:59:53;66.82;42.94;77.16;;
18377;Laerm;9315;52.624;13.544;2023-06-26T07:02:20;67.95;43.62;81.34;;
18377;Laerm;9315;52.624;13.544;2023-06-26T07:04:47;67.34;43.30;77.62;;
18377;Laerm;9315;52.624;13.544;2023-06-26T07:07:18;67.82;45.59;75.56;;
18377;Laerm;9315;52.624;13.544;2023-06-26T07:09:46;66.37;44.98;74.48;;
18377;Laerm;9315;52.624;13.544;2023-06-26T07:12:13;69.49;44.85;79.62;;
18377;Laerm;9315;52.624;13.544;2023-06-26T07:14:43;69.21;48.56;80.75;;
18377;Laerm;9315;52.624;13.544;2023-06-26T07:17:10;67.30;47.85;82.65;;
18377;Laerm;9315;52.624;13.544;2023-06-26T07:19:37;68.73;43.61;84.64;;
18377;Laerm;9315;52.624;13.544;2023-06-26T07:22:04;67.54;43.73;78.57;;
18377;Laerm;9315;52.624;13.544;2023-06-26T07:24:33;68.55;46.62;79.23;;
18377;Laerm;9315;52.624;13.544;2023-06-26T07:27:01;67.74;45.55;79.63;;
18377;Laerm;9315;52.624;13.544;2023-06-26T07:29:28;67.84;44.75;78.48;;
18377;Laerm;9315;52.624;13.544;2023-06-26T07:31:55;68.11;49.68;78.45;;
18377;Laerm;9315;52.624;13.544;2023-06-26T07:34:22;66.64;45.53;78.06;;
18377;Laerm;9315;52.624;13.544;2023-06-26T07:36:49;68.60;47.16;83.26;;
18377;Laerm;9315;52.624;13.544;2023-06-26T07:39:17;68.67;45.09;77.31;;
18377;Laerm;9315;52.624;13.544;2023-06-26T07:41:49;69.91;44.91;83.35;;
18377;Laerm;9315;52.624;13.544;2023-06-26T07:44:16;71.02;47.49;90.65;;
18377;Laerm;9315;52.624;13.544;2023-06-26T07:46:44;66.32;48.09;79.57;;
18377;Laerm;9315;52.624;13.544;2023-06-26T07:49:12;68.89;45.87;80.57;;
18377;Laerm;9315;52.624;13.544;2023-06-26T07:51:39;67.72;49.38;81.17;;
18377;Laerm;9315;52.624;13.544;2023-06-26T07:54:06;67.41;45.90;77.94;;
18377;Laerm;9315;52.624;13.544;2023-06-26T07:57:00;68.32;47.75;78.10;;
18377;Laerm;9315;52.624;13.544;2023-06-26T07:59:29;66.96;45.97;76.07;;
18377;Laerm;9315;52.624;13.544;2023-06-26T08:01:58;68.23;44.32;79.29;;
18377;Laerm;9315;52.624;13.544;2023-06-26T08:04:28;67.09;45.18;77.13;;
18377;Laerm;9315;52.624;13.544;2023-06-26T08:07:00;67.90;44.20;82.23;;
18377;Laerm;9315;52.624;13.544;2023-06-26T08:09:30;67.38;45.21;76.47;;
18377;Laerm;9315;52.624;13.544;2023-06-26T08:11:58;67.91;44.64;77.89;;
18377;Laerm;9315;52.624;13.544;2023-06-26T08:14:26;67.73;46.10;75.45;;
18377;Laerm;9315;52.624;13.544;2023-06-26T08:16:53;64.98;45.37;75.66;;
18377;Laerm;9315;52.624;13.544;2023-06-26T08:19:20;66.24;49.30;77.65;;
18377;Laerm;9315;52.624;13.544;2023-06-26T08:21:48;67.35;47.67;80.42;;
18377;Laerm;9315;52.624;13.544;2023-06-26T08:24:15;67.79;42.11;78.68;;
18377;Laerm;9315;52.624;13.544;2023-06-26T08:26:47;67.91;46.69;76.55;;
18377;Laerm;9315;52.624;13.544;2023-06-26T08:29:15;67.15;47.60;74.30;;
18377;Laerm;9315;52.624;13.544;2023-06-26T08:31:43;66.36;44.76;77.18;;
18377;Laerm;9315;52.624;13.544;2023-06-26T08:34:10;66.14;44.31;77.54;;
18377;Laerm;9315;52.624;13.544;2023-06-26T08:36:38;66.63;45.39;77.78;;
18377;Laerm;9315;52.624;13.544;2023-06-26T08:39:05;69.09;46.60;84.46;;
18377;Laerm;9315;52.624;13.544;2023-06-26T08:41:33;66.00;44.98;77.46;;
18377;Laerm;9315;52.624;13.544;2023-06-26T08:44:00;66.64;46.74;78.76;;
18377;Laerm;9315;52.624;13.544;2023-06-26T08:46:28;68.31;48.09;80.01;;
18377;Laerm;9315;52.624;13.544;2023-06-26T08:49:14;66.71;47.27;74.85;;
18377;Laerm;9315;52.624;13.544;2023-06-26T08:51:52;67.81;45.29;78.35;;
18377;Laerm;9315;52.624;13.544;2023-06-26T08:54:38;65.77;43.97;84.48;;
18377;Laerm;9315;52.624;13.544;2023-06-26T08:57:08;69.52;46.29;81.47;;
18377;Laerm;9315;52.624;13.544;2023-06-26T08:59:35;67.21;46.26;75.13;;
18377;Laerm;9315;52.624;13.544;2023-06-26T09:02:03;67.79;49.06;76.12;;
18377;Laerm;9315;52.624;13.544;2023-06-26T09:04:30;67.37;45.88;78.80;;
18377;Laerm;9315;52.624;13.544;2023-06-26T09:06:58;67.69;41.84;79.74;;
18377;Laerm;9315;52.624;13.544;2023-06-26T09:09:25;79.73;46.31;104.05;;
18377;Laerm;9315;52.624;13.544;2023-06-26T09:11:52;68.06;51.01;78.86;;
18377;Laerm;9315;52.624;13.544;2023-06-26T09:14:20;67.07;48.50;80.17;;
18377;Laerm;9315;52.624;13.544;2023-06-26T09:16:48;67.81;45.64;79.35;;
18377;Laerm;9315;52.624;13.544;2023-06-26T09:19:15;68.25;49.69;80.51;;
18377;Laerm;9315;52.624;13.544;2023-06-26T09:21:43;67.41;44.99;78.79;;
18377;Laerm;9315;52.624;13.544;2023-06-26T09:24:11;67.80;49.11;83.63;;
18377;Laerm;9315;52.624;13.544;2023-06-26T09:26:40;67.22;49.81;79.50;;
18377;Laerm;9315;52.624;13.544;2023-06-26T09:29:09;67.30;50.53;75.27;;
18377;Laerm;9315;52.624;13.544;2023-06-26T09:31:40;68.69;44.91;83.02;;
18377;Laerm;9315;52.624;13.544;2023-06-26T09:34:09;68.31;46.02;76.98;;
18377;Laerm;9315;52.624;13.544;2023-06-26T09:36:37;67.82;46.49;80.86;;
18377;Laerm;9315;52.624;13.544;2023-06-26T09:39:08;69.88;42.90;83.00;;
18377;Laerm;9315;52.624;13.544;2023-06-26T09:41:42;66.39;43.96;74.50;;
18377;Laerm;9315;52.624;13.544;2023-06-26T09:44:13;67.71;44.14;76.31;;
18377;Laerm;9315;52.624;13.544;2023-06-26T09:46:41;65.98;45.73;73.57;;
18377;Laerm;9315;52.624;13.544;2023-06-26T09:49:12;67.81;45.01;81.27;;
18377;Laerm;9315;52.624;13.544;2023-06-26T09:51:42;68.87;45.69;79.90;;
18377;Laerm;9315;52.624;13.544;2023-06-26T09:54:10;65.19;43.19;78.59;;
18377;Laerm;9315;52.624;13.544;2023-06-26T09:56:37;69.54;46.68;81.97;;
18377;Laerm;9315;52.624;13.544;2023-06-26T09:59:06;67.11;45.40;76.15;;
18377;Laerm;9315;52.624;13.544;2023-06-26T10:01:40;68.45;45.98;77.97;;
18377;Laerm;9315;52.624;13.544;2023-06-26T10:04:08;68.26;46.19;79.47;;
18377;Laerm;9315;52.624;13.544;2023-06-26T10:06:46;64.94;43.04;74.92;;
18377;Laerm;9315;52.624;13.544;2023-06-26T10:09:19;67.03;43.52;79.64;;
18377;Laerm;9315;52.624;13.544;2023-06-26T10:12:10;65.57;43.78;77.08;;
18377;Laerm;9315;52.624;13.544;2023-06-26T10:19:07;67.45;43.87;80.09;;
18377;Laerm;9315;52.624;13.544;2023-06-26T10:21:38;67.48;45.10;76.39;;
18377;Laerm;9315;52.624;13.544;2023-06-26T10:24:11;68.19;45.91;85.10;;
18377;Laerm;9315;52.624;13.544;2023-06-26T10:26:45;69.03;49.86;84.80;;
18377;Laerm;9315;52.624;13.544;2023-06-26T10:29:15;67.36;44.72;75.58;;
18377;Laerm;9315;52.624;13.544;2023-06-26T10:31:51;67.88;44.70;75.51;;
18377;Laerm;9315;52.624;13.544;2023-06-26T10:34:19;68.01;44.50;80.38;;
18377;Laerm;9315;52.624;13.544;2023-06-26T10:36:47;66.97;44.47;76.15;;
18377;Laerm;9315;52.624;13.544;2023-06-26T10:39:15;69.27;45.36;81.10;;
18377;Laerm;9315;52.624;13.544;2023-06-26T10:41:44;73.92;46.93;97.42;;
18377;Laerm;9315;52.624;13.544;2023-06-26T10:44:45;67.82;44.82;80.65;;
18377;Laerm;9315;52.624;13.544;2023-06-26T10:47:30;81.10;47.50;108.53;;
18377;Laerm;9315;52.624;13.544;2023-06-26T10:50:33;68.12;43.78;80.37;;
18377;Laerm;9315;52.624;13.544;2023-06-26T10:56:04;68.99;47.50;84.00;;
18377;Laerm;9315;52.624;13.544;2023-06-26T11:01:25;69.41;49.31;78.91;;
18377;Laerm;9315;52.624;13.544;2023-06-26T11:06:30;66.59;41.70;76.95;;
18377;Laerm;9315;52.624;13.544;2023-06-26T11:09:08;68.60;46.83;80.75;;
18377;Laerm;9315;52.624;13.544;2023-06-26T11:11:57;70.90;43.43;85.13;;
18377;Laerm;9315;52.624;13.544;2023-06-26T11:14:26;65.99;46.38;74.90;;
18377;Laerm;9315;52.624;13.544;2023-06-26T11:16:58;67.53;46.18;77.51;;
18377;Laerm;9315;52.624;13.544;2023-06-26T11:19:27;68.10;44.54;81.86;;
18377;Laerm;9315;52.624;13.544;2023-06-26T11:22:05;68.22;49.99;82.13;;
18377;Laerm;9315;52.624;13.544;2023-06-26T11:24:33;65.89;42.52;78.37;;
18377;Laerm;9315;52.624;13.544;2023-06-26T11:27:02;66.58;43.20;78.23;;
18377;Laerm;9315;52.624;13.544;2023-06-26T11:29:33;67.47;45.05;79.26;;
18377;Laerm;9315;52.624;13.544;2023-06-26T11:32:04;67.57;47.97;81.42;;
18377;Laerm;9315;52.624;13.544;2023-06-26T11:34:34;66.72;48.36;86.06;;
18377;Laerm;9315;52.624;13.544;2023-06-26T11:37:02;65.51;42.33;78.22;;
18377;Laerm;9315;52.624;13.544;2023-06-26T11:39:30;69.47;44.59;81.89;;
18377;Laerm;9315;52.624;13.544;2023-06-26T11:42:00;68.80;47.66;80.73;;
18377;Laerm;9315;52.624;13.544;2023-06-26T11:44:31;67.58;43.58;77.29;;
18377;Laerm;9315;52.624;13.544;2023-06-26T11:47:01;67.63;43.34;80.50;;
18377;Laerm;9315;52.624;13.544;2023-06-26T11:49:29;64.60;41.51;73.38;;
18377;Laerm;9315;52.624;13.544;2023-06-26T11:51:56;69.09;47.05;78.90;;
18377;Laerm;9315;52.624;13.544;2023-06-26T11:54:26;66.18;44.82;79.71;;
18377;Laerm;9315;52.624;13.544;2023-06-26T11:56:58;65.24;40.81;79.09;;
18377;Laerm;9315;52.624;13.544;2023-06-26T11:59:41;69.26;45.20;78.49;;
18377;Laerm;9315;52.624;13.544;2023-06-26T12:02:12;68.93;48.60;78.56;;
18377;Laerm;9315;52.624;13.544;2023-06-26T12:04:42;66.58;43.42;77.54;;
18377;Laerm;9315;52.624;13.544;2023-06-26T12:07:10;67.76;43.01;81.40;;
18377;Laerm;9315;52.624;13.544;2023-06-26T12:09:46;67.69;45.35;75.62;;
18377;Laerm;9315;52.624;13.544;2023-06-26T12:12:20;67.75;47.17;79.42;;
18377;Laerm;9315;52.624;13.544;2023-06-26T12:14:50;66.54;41.64;87.43;;
18377;Laerm;9315;52.624;13.544;2023-06-26T12:17:23;67.95;46.84;77.29;;
18377;Laerm;9315;52.624;13.544;2023-06-26T12:19:55;67.94;46.74;77.43;;
18377;Laerm;9315;52.624;13.544;2023-06-26T12:22:22;68.51;45.55;81.38;;
18377;Laerm;9315;52.624;13.544;2023-06-26T12:24:50;69.26;44.69;82.94;;
18377;Laerm;9315;52.624;13.544;2023-06-26T12:27:18;67.93;45.12;80.94;;
18377;Laerm;9315;52.624;13.544;2023-06-26T12:29:54;67.62;50.21;75.63;;
18377;Laerm;9315;52.624;13.544;2023-06-26T12:32:25;66.93;43.32;77.59;;
18377;Laerm;9315;52.624;13.544;2023-06-26T12:34:53;67.59;44.52;85.01;;
18377;Laerm;9315;52.624;13.544;2023-06-26T12:37:23;68.76;44.50;78.06;;
18377;Laerm;9315;52.624;13.544;2023-06-26T12:39:57;68.41;43.67;76.70;;
18377;Laerm;9315;52.624;13.544;2023-06-26T12:42:32;68.70;48.51;91.77;;
18377;Laerm;9315;52.624;13.544;2023-06-26T12:45:09;67.54;45.40;75.00;;
18377;Laerm;9315;52.624;13.544;2023-06-26T12:48:12;67.28;45.69;77.23;;
18377;Laerm;9315;52.624;13.544;2023-06-26T12:50:45;67.52;46.29;77.89;;
18377;Laerm;9315;52.624;13.544;2023-06-26T12:53:13;67.62;45.41;75.78;;
18377;Laerm;9315;52.624;13.544;2023-06-26T12:55:41;68.02;44.60;79.24;;
18377;Laerm;9315;52.624;13.544;2023-06-26T12:58:08;66.82;46.44;75.67;;
18377;Laerm;9315;52.624;13.544;2023-06-26T13:00:38;66.88;47.20;78.48;;
18377;Laerm;9315;52.624;13.544;2023-06-26T13:03:08;68.77;45.24;84.00;;
18377;Laerm;9315;52.624;13.544;2023-06-26T13:05:37;68.01;45.86;83.45;;
18377;Laerm;9315;52.624;13.544;2023-06-26T13:08:05;67.65;49.39;76.71;;
18377;Laerm;9315;52.624;13.544;2023-06-26T13:10:33;67.73;45.02;76.59;;
18377;Laerm;9315;52.624;13.544;2023-06-26T13:13:03;70.11;49.11;85.45;;
18377;Laerm;9315;52.624;13.544;2023-06-26T13:15:33;67.60;46.80;81.53;;
18377;Laerm;9315;52.624;13.544;2023-06-26T13:18:00;67.45;44.11;76.94;;
18377;Laerm;9315;52.624;13.544;2023-06-26T13:20:27;67.36;47.87;83.22;;
18377;Laerm;9315;52.624;13.544;2023-06-26T13:22:55;67.38;47.92;76.79;;
18377;Laerm;9315;52.624;13.544;2023-06-26T13:25:22;66.99;47.18;76.31;;
18377;Laerm;9315;52.624;13.544;2023-06-26T13:27:49;69.37;46.22;80.92;;
18377;Laerm;9315;52.624;13.544;2023-06-26T13:30:17;68.11;49.71;75.60;;
18377;Laerm;9315;52.624;13.544;2023-06-26T13:32:44;68.22;49.65;76.99;;
18377;Laerm;9315;52.624;13.544;2023-06-26T13:35:13;67.55;49.15;77.99;;
18377;Laerm;9315;52.624;13.544;2023-06-26T13:37:41;68.84;48.83;80.33;;
18377;Laerm;9315;52.624;13.544;2023-06-26T13:40:10;70.03;53.98;82.12;;
18377;Laerm;9315;52.624;13.544;2023-06-26T13:42:37;69.25;50.88;86.66;;
18377;Laerm;9315;52.624;13.544;2023-06-26T13:45:07;68.27;49.18;79.98;;
18377;Laerm;9315;52.624;13.544;2023-06-26T13:47:52;69.34;49.29;82.19;;
18377;Laerm;9315;52.624;13.544;2023-06-26T13:50:20;70.04;47.30;86.86;;
18377;Laerm;9315;52.624;13.544;2023-06-26T13:52:47;68.04;48.74;77.82;;
18377;Laerm;9315;52.624;13.544;2023-06-26T13:55:14;66.49;48.59;75.99;;
18377;Laerm;9315;52.624;13.544;2023-06-26T13:57:42;67.87;46.24;77.17;;
18377;Laerm;9315;52.624;13.544;2023-06-26T14:00:10;68.65;49.24;78.56;;
18377;Laerm;9315;52.624;13.544;2023-06-26T14:02:39;67.95;52.20;75.38;;
18377;Laerm;9315;52.624;13.544;2023-06-26T14:05:07;69.31;50.24;84.73;;
18377;Laerm;9315;52.624;13.544;2023-06-26T14:07:34;67.99;47.83;78.14;;
18377;Laerm;9315;52.624;13.544;2023-06-26T14:10:02;67.90;49.51;76.55;;
18377;Laerm;9315;52.624;13.544;2023-06-26T14:12:29;68.99;49.40;85.26;;
18377;Laerm;9315;52.624;13.544;2023-06-26T14:14:56;66.68;48.37;76.38;;
18377;Laerm;9315;52.624;13.544;2023-06-26T14:17:23;67.95;48.70;73.94;;
18377;Laerm;9315;52.624;13.544;2023-06-26T14:19:53;68.81;50.49;76.47;;